sensor_id;sensor_type;location;lat;lon;timestamp;P1;durP1;ratioP1;P2;durP2;ratioP2
52186;SDS011;38161;53.020;6.598;2023-05-07T00:02:24;1813.68;;;513.72;;
52186;SDS011;38161;53.020;6.598;2023-05-07T00:04:50;889.70;;;376.42;;
52186;SDS011;38161;53.020;6.598;2023-05-07T00:07:17;1259.15;;;453.52;;
52186;SDS011;38161;53.020;6.598;2023-05-07T00:09:43;1832.10;;;499.75;;
52186;SDS011;38161;53.020;6.598;2023-05-07T00:12:09;1352.63;;;451.55;;
52186;SDS011;38161;53.020;6.598;2023-05-07T00:14:34;1276.90;;;452.80;;
52186;SDS011;38161;53.020;6.598;2023-05-07T00:17:00;1401.65;;;409.40;;
52186;SDS011;38161;53.020;6.598;2023-05-07T00:19:26;1979.32;;;604.42;;
52186;SDS011;38161;53.020;6.598;2023-05-07T00:21:52;1614.43;;;478.05;;
52186;SDS011;38161;53.020;6.598;2023-05-07T00:24:22;1724.95;;;465.23;;
52186;SDS011;38161;53.020;6.598;2023-05-07T00:26:47;1473.45;;;442.00;;
52186;SDS011;38161;53.020;6.598;2023-05-07T00:29:13;1034.50;;;423.08;;
52186;SDS011;38161;53.020;6.598;2023-05-07T00:31:39;1952.70;;;563.20;;
52186;SDS011;38161;53.020;6.598;2023-05-07T00:34:05;1247.47;;;444.87;;
52186;SDS011;38161;53.020;6.598;2023-05-07T00:36:31;1516.50;;;437.77;;
52186;SDS011;38161;53.020;6.598;2023-05-07T00:38:58;1082.63;;;391.25;;
52186;SDS011;38161;53.020;6.598;2023-05-07T00:41:25;1619.20;;;398.65;;
52186;SDS011;38161;53.020;6.598;2023-05-07T00:43:51;1188.10;;;401.73;;
52186;SDS011;38161;53.020;6.598;2023-05-07T00:46:18;1564.35;;;419.83;;
52186;SDS011;38161;53.020;6.598;2023-05-07T00:48:45;1053.40;;;407.30;;
52186;SDS011;38161;53.020;6.598;2023-05-07T00:51:11;922.53;;;392.70;;
52186;SDS011;38161;53.020;6.598;2023-05-07T00:53:38;1227.68;;;444.17;;
52186;SDS011;38161;53.020;6.598;2023-05-07T00:56:04;1342.70;;;399.73;;
52186;SDS011;38161;53.020;6.598;2023-05-07T00:58:32;1393.18;;;432.23;;
52186;SDS011;38161;53.020;6.598;2023-05-07T01:00:58;1299.95;;;435.58;;
52186;SDS011;38161;53.020;6.598;2023-05-07T01:03:24;1241.75;;;359.83;;
52186;SDS011;38161;53.020;6.598;2023-05-07T01:05:50;1274.50;;;401.73;;
52186;SDS011;38161;53.020;6.598;2023-05-07T01:08:18;1137.93;;;381.50;;
52186;SDS011;38161;53.020;6.598;2023-05-07T01:10:44;1057.28;;;409.17;;
52186;SDS011;38161;53.020;6.598;2023-05-07T01:13:11;989.55;;;385.63;;
52186;SDS011;38161;53.020;6.598;2023-05-07T01:15:41;1381.60;;;417.58;;
52186;SDS011;38161;53.020;6.598;2023-05-07T01:18:08;1031.45;;;368.45;;
52186;SDS011;38161;53.020;6.598;2023-05-07T01:20:34;975.45;;;363.40;;
52186;SDS011;38161;53.020;6.598;2023-05-07T01:23:00;1270.00;;;341.93;;
52186;SDS011;38161;53.020;6.598;2023-05-07T01:25:26;1232.25;;;388.70;;
52186;SDS011;38161;53.020;6.598;2023-05-07T01:27:52;709.95;;;293.75;;
52186;SDS011;38161;53.020;6.598;2023-05-07T01:30:18;1009.67;;;343.92;;
52186;SDS011;38161;53.020;6.598;2023-05-07T01:33:08;1176.05;;;378.33;;
52186;SDS011;38161;53.020;6.598;2023-05-07T01:35:36;434.85;;;248.77;;
52186;SDS011;38161;53.020;6.598;2023-05-07T01:38:04;659.08;;;275.58;;
52186;SDS011;38161;53.020;6.598;2023-05-07T01:40:31;633.85;;;293.00;;
52186;SDS011;38161;53.020;6.598;2023-05-07T01:42:56;706.22;;;311.90;;
52186;SDS011;38161;53.020;6.598;2023-05-07T01:45:22;594.55;;;251.85;;
52186;SDS011;38161;53.020;6.598;2023-05-07T01:47:49;681.45;;;321.13;;
52186;SDS011;38161;53.020;6.598;2023-05-07T01:50:15;478.08;;;262.38;;
52186;SDS011;38161;53.020;6.598;2023-05-07T01:52:43;441.92;;;256.48;;
52186;SDS011;38161;53.020;6.598;2023-05-07T01:55:09;702.60;;;288.70;;
52186;SDS011;38161;53.020;6.598;2023-05-07T01:57:35;500.58;;;236.93;;
52186;SDS011;38161;53.020;6.598;2023-05-07T02:00:01;524.47;;;253.20;;
52186;SDS011;38161;53.020;6.598;2023-05-07T02:02:31;352.10;;;190.85;;
52186;SDS011;38161;53.020;6.598;2023-05-07T02:04:57;427.45;;;239.98;;
52186;SDS011;38161;53.020;6.598;2023-05-07T02:07:22;451.25;;;225.43;;
52186;SDS011;38161;53.020;6.598;2023-05-07T02:09:48;307.63;;;204.88;;
52186;SDS011;38161;53.020;6.598;2023-05-07T02:12:14;346.88;;;183.05;;
52186;SDS011;38161;53.020;6.598;2023-05-07T02:14:40;298.45;;;178.60;;
52186;SDS011;38161;53.020;6.598;2023-05-07T02:17:05;361.42;;;204.65;;
52186;SDS011;38161;53.020;6.598;2023-05-07T02:19:32;262.00;;;168.15;;
52186;SDS011;38161;53.020;6.598;2023-05-07T02:21:58;383.30;;;210.23;;
52186;SDS011;38161;53.020;6.598;2023-05-07T02:24:24;238.98;;;174.05;;
52186;SDS011;38161;53.020;6.598;2023-05-07T02:26:49;206.67;;;151.87;;
52186;SDS011;38161;53.020;6.598;2023-05-07T02:29:15;339.92;;;212.98;;
52186;SDS011;38161;53.020;6.598;2023-05-07T02:31:41;220.60;;;166.90;;
52186;SDS011;38161;53.020;6.598;2023-05-07T02:34:07;220.80;;;163.27;;
52186;SDS011;38161;53.020;6.598;2023-05-07T02:36:32;262.17;;;190.07;;
52186;SDS011;38161;53.020;6.598;2023-05-07T02:38:58;194.67;;;155.63;;
52186;SDS011;38161;53.020;6.598;2023-05-07T02:41:24;283.92;;;175.75;;
52186;SDS011;38161;53.020;6.598;2023-05-07T02:43:49;189.52;;;139.38;;
52186;SDS011;38161;53.020;6.598;2023-05-07T02:46:15;248.35;;;163.07;;
52186;SDS011;38161;53.020;6.598;2023-05-07T02:48:41;214.82;;;148.15;;
52186;SDS011;38161;53.020;6.598;2023-05-07T02:51:07;190.68;;;159.20;;
52186;SDS011;38161;53.020;6.598;2023-05-07T02:53:33;230.73;;;158.27;;
52186;SDS011;38161;53.020;6.598;2023-05-07T02:55:59;204.48;;;138.20;;
52186;SDS011;38161;53.020;6.598;2023-05-07T03:00:51;89.13;;;78.63;;
52186;SDS011;38161;53.020;6.598;2023-05-07T03:03:18;112.38;;;86.22;;
52186;SDS011;38161;53.020;6.598;2023-05-07T03:05:43;126.22;;;99.45;;
52186;SDS011;38161;53.020;6.598;2023-05-07T03:08:09;137.67;;;117.53;;
52186;SDS011;38161;53.020;6.598;2023-05-07T03:10:35;157.18;;;118.45;;
52186;SDS011;38161;53.020;6.598;2023-05-07T03:15:28;67.22;;;59.17;;
52186;SDS011;38161;53.020;6.598;2023-05-07T03:17:53;66.82;;;59.67;;
52186;SDS011;38161;53.020;6.598;2023-05-07T03:20:19;74.57;;;65.22;;
52186;SDS011;38161;53.020;6.598;2023-05-07T03:22:45;74.10;;;62.75;;
52186;SDS011;38161;53.020;6.598;2023-05-07T03:25:12;75.13;;;66.45;;
52186;SDS011;38161;53.020;6.598;2023-05-07T03:27:39;85.88;;;74.95;;
52186;SDS011;38161;53.020;6.598;2023-05-07T03:30:07;79.38;;;71.13;;
52186;SDS011;38161;53.020;6.598;2023-05-07T03:32:34;86.45;;;78.40;;
52186;SDS011;38161;53.020;6.598;2023-05-07T03:37:26;57.50;;;45.97;;
52186;SDS011;38161;53.020;6.598;2023-05-07T03:39:52;67.07;;;59.92;;
52186;SDS011;38161;53.020;6.598;2023-05-07T03:42:17;64.65;;;58.03;;
52186;SDS011;38161;53.020;6.598;2023-05-07T03:44:43;77.50;;;69.28;;
52186;SDS011;38161;53.020;6.598;2023-05-07T03:47:09;73.03;;;59.90;;
52186;SDS011;38161;53.020;6.598;2023-05-07T03:49:35;65.47;;;57.65;;
52186;SDS011;38161;53.020;6.598;2023-05-07T03:54:27;53.97;;;44.55;;
52186;SDS011;38161;53.020;6.598;2023-05-07T03:56:53;70.07;;;55.95;;
52186;SDS011;38161;53.020;6.598;2023-05-07T03:59:19;86.63;;;62.67;;
52186;SDS011;38161;53.020;6.598;2023-05-07T04:01:44;78.22;;;66.40;;
52186;SDS011;38161;53.020;6.598;2023-05-07T04:04:10;72.15;;;63.03;;
52186;SDS011;38161;53.020;6.598;2023-05-07T04:06:36;76.23;;;68.43;;
52186;SDS011;38161;53.020;6.598;2023-05-07T04:09:02;73.05;;;65.15;;
52186;SDS011;38161;53.020;6.598;2023-05-07T04:11:28;76.05;;;68.25;;
52186;SDS011;38161;53.020;6.598;2023-05-07T04:13:54;73.45;;;60.78;;
52186;SDS011;38161;53.020;6.598;2023-05-07T04:16:20;74.85;;;67.13;;
52186;SDS011;38161;53.020;6.598;2023-05-07T04:18:45;67.22;;;60.33;;
52186;SDS011;38161;53.020;6.598;2023-05-07T04:21:18;76.40;;;68.35;;
52186;SDS011;38161;53.020;6.598;2023-05-07T04:23:45;70.63;;;61.50;;
52186;SDS011;38161;53.020;6.598;2023-05-07T04:26:12;68.70;;;61.70;;
52186;SDS011;38161;53.020;6.598;2023-05-07T04:28:38;66.00;;;58.88;;
52186;SDS011;38161;53.020;6.598;2023-05-07T04:31:05;68.28;;;61.47;;
52186;SDS011;38161;53.020;6.598;2023-05-07T04:33:31;68.60;;;62.05;;
52186;SDS011;38161;53.020;6.598;2023-05-07T04:35:58;70.95;;;63.65;;
52186;SDS011;38161;53.020;6.598;2023-05-07T04:38:28;72.72;;;65.60;;
52186;SDS011;38161;53.020;6.598;2023-05-07T04:40:58;75.55;;;67.82;;
52186;SDS011;38161;53.020;6.598;2023-05-07T04:43:28;60.15;;;52.75;;
52186;SDS011;38161;53.020;6.598;2023-05-07T04:45:54;79.88;;;68.07;;
52186;SDS011;38161;53.020;6.598;2023-05-07T04:48:20;60.37;;;54.17;;
52186;SDS011;38161;53.020;6.598;2023-05-07T04:50:49;71.05;;;64.28;;
52186;SDS011;38161;53.020;6.598;2023-05-07T04:53:16;65.63;;;58.83;;
52186;SDS011;38161;53.020;6.598;2023-05-07T04:55:42;65.32;;;59.13;;
52186;SDS011;38161;53.020;6.598;2023-05-07T04:58:08;59.47;;;53.60;;
52186;SDS011;38161;53.020;6.598;2023-05-07T05:00:34;74.55;;;64.65;;
52186;SDS011;38161;53.020;6.598;2023-05-07T05:03:00;64.72;;;58.40;;
52186;SDS011;38161;53.020;6.598;2023-05-07T05:05:26;52.72;;;47.28;;
52186;SDS011;38161;53.020;6.598;2023-05-07T05:07:51;73.82;;;56.25;;
52186;SDS011;38161;53.020;6.598;2023-05-07T05:10:18;62.05;;;56.10;;
52186;SDS011;38161;53.020;6.598;2023-05-07T05:12:43;50.53;;;45.78;;
52186;SDS011;38161;53.020;6.598;2023-05-07T05:15:11;66.22;;;59.72;;
52186;SDS011;38161;53.020;6.598;2023-05-07T05:17:37;58.60;;;47.63;;
52186;SDS011;38161;53.020;6.598;2023-05-07T05:20:04;58.80;;;52.50;;
52186;SDS011;38161;53.020;6.598;2023-05-07T05:22:31;65.15;;;58.95;;
52186;SDS011;38161;53.020;6.598;2023-05-07T05:24:57;58.60;;;52.97;;
52186;SDS011;38161;53.020;6.598;2023-05-07T05:27:23;55.67;;;50.03;;
52186;SDS011;38161;53.020;6.598;2023-05-07T05:29:49;54.30;;;49.30;;
52186;SDS011;38161;53.020;6.598;2023-05-07T05:32:14;63.80;;;57.20;;
52186;SDS011;38161;53.020;6.598;2023-05-07T05:34:40;58.83;;;53.17;;
52186;SDS011;38161;53.020;6.598;2023-05-07T05:37:06;55.47;;;49.72;;
52186;SDS011;38161;53.020;6.598;2023-05-07T05:39:32;50.22;;;44.67;;
52186;SDS011;38161;53.020;6.598;2023-05-07T05:41:58;62.90;;;56.83;;
52186;SDS011;38161;53.020;6.598;2023-05-07T05:44:23;57.80;;;51.75;;
52186;SDS011;38161;53.020;6.598;2023-05-07T05:46:50;57.00;;;51.15;;
52186;SDS011;38161;53.020;6.598;2023-05-07T05:49:16;62.15;;;55.88;;
52186;SDS011;38161;53.020;6.598;2023-05-07T05:51:42;59.80;;;53.70;;
52186;SDS011;38161;53.020;6.598;2023-05-07T05:54:08;55.08;;;49.58;;
52186;SDS011;38161;53.020;6.598;2023-05-07T05:56:34;57.38;;;51.72;;
52186;SDS011;38161;53.020;6.598;2023-05-07T05:59:00;63.65;;;57.58;;
52186;SDS011;38161;53.020;6.598;2023-05-07T06:01:26;66.10;;;60.37;;
52186;SDS011;38161;53.020;6.598;2023-05-07T06:03:51;50.00;;;45.03;;
52186;SDS011;38161;53.020;6.598;2023-05-07T06:06:17;61.70;;;55.93;;
52186;SDS011;38161;53.020;6.598;2023-05-07T06:08:43;60.90;;;55.03;;
52186;SDS011;38161;53.020;6.598;2023-05-07T06:11:09;76.45;;;69.18;;
52186;SDS011;38161;53.020;6.598;2023-05-07T06:13:35;66.65;;;60.50;;
52186;SDS011;38161;53.020;6.598;2023-05-07T06:16:00;70.53;;;62.78;;
52186;SDS011;38161;53.020;6.598;2023-05-07T06:18:26;58.87;;;53.13;;
52186;SDS011;38161;53.020;6.598;2023-05-07T06:20:52;51.83;;;46.53;;
52186;SDS011;38161;53.020;6.598;2023-05-07T06:23:18;52.65;;;47.63;;
52186;SDS011;38161;53.020;6.598;2023-05-07T06:25:53;53.47;;;48.58;;
52186;SDS011;38161;53.020;6.598;2023-05-07T06:28:19;118.05;;;62.33;;
52186;SDS011;38161;53.020;6.598;2023-05-07T06:30:45;88.22;;;64.88;;
52186;SDS011;38161;53.020;6.598;2023-05-07T06:33:10;63.50;;;57.60;;
52186;SDS011;38161;53.020;6.598;2023-05-07T06:35:36;55.97;;;50.75;;
52186;SDS011;38161;53.020;6.598;2023-05-07T06:38:02;52.43;;;47.70;;
52186;SDS011;38161;53.020;6.598;2023-05-07T06:40:27;50.57;;;45.60;;
52186;SDS011;38161;53.020;6.598;2023-05-07T06:42:53;59.65;;;53.78;;
52186;SDS011;38161;53.020;6.598;2023-05-07T06:45:19;58.47;;;52.65;;
52186;SDS011;38161;53.020;6.598;2023-05-07T06:47:45;60.15;;;54.20;;
52186;SDS011;38161;53.020;6.598;2023-05-07T06:50:11;63.80;;;57.90;;
52186;SDS011;38161;53.020;6.598;2023-05-07T06:52:37;68.25;;;59.80;;
52186;SDS011;38161;53.020;6.598;2023-05-07T06:55:03;54.38;;;49.20;;
52186;SDS011;38161;53.020;6.598;2023-05-07T06:57:29;54.80;;;49.58;;
52186;SDS011;38161;53.020;6.598;2023-05-07T06:59:55;56.07;;;50.80;;
52186;SDS011;38161;53.020;6.598;2023-05-07T07:02:21;64.60;;;58.47;;
52186;SDS011;38161;53.020;6.598;2023-05-07T07:04:46;73.07;;;65.22;;
52186;SDS011;38161;53.020;6.598;2023-05-07T07:07:12;69.67;;;62.47;;
52186;SDS011;38161;53.020;6.598;2023-05-07T07:09:38;73.43;;;66.33;;
52186;SDS011;38161;53.020;6.598;2023-05-07T07:12:04;84.47;;;72.20;;
52186;SDS011;38161;53.020;6.598;2023-05-07T07:14:30;85.70;;;77.70;;
52186;SDS011;38161;53.020;6.598;2023-05-07T07:16:55;77.32;;;69.78;;
52186;SDS011;38161;53.020;6.598;2023-05-07T07:19:21;108.25;;;88.30;;
52186;SDS011;38161;53.020;6.598;2023-05-07T07:21:47;90.70;;;81.35;;
52186;SDS011;38161;53.020;6.598;2023-05-07T07:24:13;79.22;;;71.57;;
52186;SDS011;38161;53.020;6.598;2023-05-07T07:26:44;80.38;;;72.88;;
52186;SDS011;38161;53.020;6.598;2023-05-07T07:29:10;87.57;;;79.20;;
52186;SDS011;38161;53.020;6.598;2023-05-07T07:31:36;77.18;;;70.15;;
52186;SDS011;38161;53.020;6.598;2023-05-07T07:34:01;100.67;;;82.17;;
52186;SDS011;38161;53.020;6.598;2023-05-07T07:36:28;83.32;;;74.40;;
52186;SDS011;38161;53.020;6.598;2023-05-07T07:38:54;92.80;;;78.90;;
52186;SDS011;38161;53.020;6.598;2023-05-07T07:41:19;69.03;;;62.53;;
52186;SDS011;38161;53.020;6.598;2023-05-07T07:43:46;100.90;;;81.57;;
52186;SDS011;38161;53.020;6.598;2023-05-07T07:46:12;124.95;;;111.32;;
52186;SDS011;38161;53.020;6.598;2023-05-07T07:48:38;95.35;;;83.82;;
52186;SDS011;38161;53.020;6.598;2023-05-07T07:51:04;116.72;;;104.15;;
52186;SDS011;38161;53.020;6.598;2023-05-07T07:53:29;108.95;;;98.15;;
52186;SDS011;38161;53.020;6.598;2023-05-07T07:55:55;89.90;;;79.00;;
52186;SDS011;38161;53.020;6.598;2023-05-07T07:58:21;90.22;;;78.65;;
52186;SDS011;38161;53.020;6.598;2023-05-07T08:00:47;137.25;;;110.90;;
52186;SDS011;38161;53.020;6.598;2023-05-07T08:03:13;108.40;;;94.20;;
52186;SDS011;38161;53.020;6.598;2023-05-07T08:05:41;97.95;;;88.40;;
52186;SDS011;38161;53.020;6.598;2023-05-07T08:08:07;133.50;;;107.90;;
52186;SDS011;38161;53.020;6.598;2023-05-07T08:10:33;160.70;;;120.82;;
52186;SDS011;38161;53.020;6.598;2023-05-07T08:13:03;158.30;;;122.22;;
52186;SDS011;38161;53.020;6.598;2023-05-07T08:15:29;112.13;;;91.18;;
52186;SDS011;38161;53.020;6.598;2023-05-07T08:17:55;103.10;;;86.97;;
52186;SDS011;38161;53.020;6.598;2023-05-07T08:20:22;108.32;;;93.55;;
52186;SDS011;38161;53.020;6.598;2023-05-07T08:22:48;177.57;;;124.15;;
52186;SDS011;38161;53.020;6.598;2023-05-07T08:25:14;202.35;;;126.50;;
52186;SDS011;38161;53.020;6.598;2023-05-07T08:27:40;121.13;;;109.25;;
52186;SDS011;38161;53.020;6.598;2023-05-07T08:30:06;209.38;;;119.53;;
52186;SDS011;38161;53.020;6.598;2023-05-07T08:34:58;79.82;;;72.13;;
52186;SDS011;38161;53.020;6.598;2023-05-07T08:37:24;88.13;;;79.32;;
52186;SDS011;38161;53.020;6.598;2023-05-07T08:39:49;174.05;;;132.85;;
52186;SDS011;38161;53.020;6.598;2023-05-07T08:42:16;140.03;;;110.50;;
52186;SDS011;38161;53.020;6.598;2023-05-07T08:44:42;116.88;;;106.05;;
52186;SDS011;38161;53.020;6.598;2023-05-07T08:47:13;187.55;;;144.23;;
52186;SDS011;38161;53.020;6.598;2023-05-07T08:49:39;193.95;;;144.02;;
52186;SDS011;38161;53.020;6.598;2023-05-07T08:52:05;229.95;;;165.45;;
52186;SDS011;38161;53.020;6.598;2023-05-07T08:54:31;219.98;;;171.50;;
52186;SDS011;38161;53.020;6.598;2023-05-07T08:56:58;203.90;;;133.82;;
52186;SDS011;38161;53.020;6.598;2023-05-07T08:59:24;184.80;;;141.73;;
52186;SDS011;38161;53.020;6.598;2023-05-07T09:01:50;197.10;;;132.15;;
52186;SDS011;38161;53.020;6.598;2023-05-07T09:04:16;241.35;;;145.40;;
52186;SDS011;38161;53.020;6.598;2023-05-07T09:06:42;299.52;;;155.77;;
52186;SDS011;38161;53.020;6.598;2023-05-07T09:09:08;173.00;;;126.93;;
52186;SDS011;38161;53.020;6.598;2023-05-07T09:11:34;233.82;;;167.15;;
52186;SDS011;38161;53.020;6.598;2023-05-07T09:13:59;321.70;;;195.50;;
52186;SDS011;38161;53.020;6.598;2023-05-07T09:16:29;354.58;;;203.57;;
52186;SDS011;38161;53.020;6.598;2023-05-07T09:18:56;728.85;;;272.02;;
52186;SDS011;38161;53.020;6.598;2023-05-07T09:21:23;352.70;;;212.32;;
52186;SDS011;38161;53.020;6.598;2023-05-07T09:23:52;529.70;;;214.50;;
52186;SDS011;38161;53.020;6.598;2023-05-07T09:26:18;640.90;;;254.50;;
52186;SDS011;38161;53.020;6.598;2023-05-07T09:28:47;1015.45;;;329.58;;
52186;SDS011;38161;53.020;6.598;2023-05-07T09:31:12;1015.75;;;325.50;;
52186;SDS011;38161;53.020;6.598;2023-05-07T09:33:39;273.70;;;188.90;;
52186;SDS011;38161;53.020;6.598;2023-05-07T09:36:05;481.45;;;264.98;;
52186;SDS011;38161;53.020;6.598;2023-05-07T09:38:32;406.38;;;246.50;;
52186;SDS011;38161;53.020;6.598;2023-05-07T09:43:33;818.70;;;235.10;;
52186;SDS011;38161;53.020;6.598;2023-05-07T09:46:07;784.60;;;265.67;;
52186;SDS011;38161;53.020;6.598;2023-05-07T09:48:41;401.20;;;237.30;;
52186;SDS011;38161;53.020;6.598;2023-05-07T09:53:48;891.50;;;252.15;;
52186;SDS011;38161;53.020;6.598;2023-05-07T09:56:17;698.90;;;264.67;;
52186;SDS011;38161;53.020;6.598;2023-05-07T09:58:43;711.40;;;249.88;;
52186;SDS011;38161;53.020;6.598;2023-05-07T10:01:11;361.88;;;211.85;;
52186;SDS011;38161;53.020;6.598;2023-05-07T10:03:39;699.00;;;316.55;;
52186;SDS011;38161;53.020;6.598;2023-05-07T10:06:10;311.55;;;208.70;;
52186;SDS011;38161;53.020;6.598;2023-05-07T10:08:38;365.30;;;244.15;;
52186;SDS011;38161;53.020;6.598;2023-05-07T10:11:04;441.25;;;253.05;;
52186;SDS011;38161;53.020;6.598;2023-05-07T10:13:33;1173.50;;;376.55;;
52186;SDS011;38161;53.020;6.598;2023-05-07T10:16:03;1183.38;;;405.23;;
52186;SDS011;38161;53.020;6.598;2023-05-07T10:18:33;1549.40;;;471.80;;
52186;SDS011;38161;53.020;6.598;2023-05-07T10:21:04;1037.90;;;382.02;;
52186;SDS011;38161;53.020;6.598;2023-05-07T10:23:40;1961.20;;;485.60;;
52186;SDS011;38161;53.020;6.598;2023-05-07T10:26:09;501.00;;;287.77;;
52186;SDS011;38161;53.020;6.598;2023-05-07T10:28:40;1094.10;;;391.88;;
52186;SDS011;38161;53.020;6.598;2023-05-07T10:33:52;929.72;;;339.77;;
52186;SDS011;38161;53.020;6.598;2023-05-07T10:36:21;1589.35;;;392.27;;
52186;SDS011;38161;53.020;6.598;2023-05-07T10:38:49;1387.55;;;366.33;;
52186;SDS011;38161;53.020;6.598;2023-05-07T10:41:15;1633.85;;;448.45;;
52186;SDS011;38161;53.020;6.598;2023-05-07T10:43:44;1502.35;;;458.50;;
52186;SDS011;38161;53.020;6.598;2023-05-07T10:46:14;1999.90;;;498.58;;
52186;SDS011;38161;53.020;6.598;2023-05-07T10:51:26;1724.43;;;466.40;;
52186;SDS011;38161;53.020;6.598;2023-05-07T10:56:45;839.33;;;262.70;;
52186;SDS011;38161;53.020;6.598;2023-05-07T11:04:27;1996.95;;;593.50;;
52186;SDS011;38161;53.020;6.598;2023-05-07T11:17:56;1977.70;;;510.55;;
52186;SDS011;38161;53.020;6.598;2023-05-07T11:28:27;1999.90;;;637.03;;
52186;SDS011;38161;53.020;6.598;2023-05-07T11:30:53;1999.90;;;508.48;;
52186;SDS011;38161;53.020;6.598;2023-05-07T11:33:19;1999.90;;;612.75;;
52186;SDS011;38161;53.020;6.598;2023-05-07T11:38:12;1999.90;;;456.27;;
52186;SDS011;38161;53.020;6.598;2023-05-07T11:40:57;1988.55;;;569.58;;
52186;SDS011;38161;53.020;6.598;2023-05-07T11:43:27;1999.90;;;624.13;;
52186;SDS011;38161;53.020;6.598;2023-05-07T11:45:53;1999.90;;;623.20;;
52186;SDS011;38161;53.020;6.598;2023-05-07T11:48:20;1999.90;;;636.88;;
52186;SDS011;38161;53.020;6.598;2023-05-07T11:51:21;1302.68;;;409.90;;
52186;SDS011;38161;53.020;6.598;2023-05-07T11:53:43;1999.90;;;572.33;;
52186;SDS011;38161;53.020;6.598;2023-05-07T11:56:11;1761.43;;;500.38;;
52186;SDS011;38161;53.020;6.598;2023-05-07T11:58:38;1999.90;;;636.58;;
52186;SDS011;38161;53.020;6.598;2023-05-07T12:01:06;1999.90;;;509.15;;
52186;SDS011;38161;53.020;6.598;2023-05-07T12:03:34;1999.90;;;608.67;;
52186;SDS011;38161;53.020;6.598;2023-05-07T12:06:02;1999.90;;;662.72;;
52186;SDS011;38161;53.020;6.598;2023-05-07T12:08:30;1999.90;;;568.00;;
52186;SDS011;38161;53.020;6.598;2023-05-07T12:10:56;1657.30;;;495.42;;
52186;SDS011;38161;53.020;6.598;2023-05-07T12:13:23;1168.70;;;422.25;;
52186;SDS011;38161;53.020;6.598;2023-05-07T12:15:54;1999.90;;;585.75;;
52186;SDS011;38161;53.020;6.598;2023-05-07T12:18:21;1764.72;;;521.60;;
52186;SDS011;38161;53.020;6.598;2023-05-07T12:20:48;1930.70;;;508.95;;
52186;SDS011;38161;53.020;6.598;2023-05-07T12:23:14;1496.03;;;526.10;;
52186;SDS011;38161;53.020;6.598;2023-05-07T12:25:41;1913.70;;;510.60;;
52186;SDS011;38161;53.020;6.598;2023-05-07T12:28:18;1708.22;;;536.50;;
52186;SDS011;38161;53.020;6.598;2023-05-07T12:30:46;1849.57;;;531.53;;
52186;SDS011;38161;53.020;6.598;2023-05-07T12:33:23;1999.90;;;578.30;;
52186;SDS011;38161;53.020;6.598;2023-05-07T12:35:50;1490.05;;;502.67;;
52186;SDS011;38161;53.020;6.598;2023-05-07T12:38:19;1661.47;;;513.78;;
52186;SDS011;38161;53.020;6.598;2023-05-07T12:40:46;1999.90;;;593.42;;
52186;SDS011;38161;53.020;6.598;2023-05-07T12:43:19;1405.35;;;514.03;;
52186;SDS011;38161;53.020;6.598;2023-05-07T12:45:49;1403.38;;;494.98;;
52186;SDS011;38161;53.020;6.598;2023-05-07T12:48:16;1262.22;;;479.92;;
52186;SDS011;38161;53.020;6.598;2023-05-07T12:50:42;1754.30;;;522.30;;
52186;SDS011;38161;53.020;6.598;2023-05-07T12:53:09;1298.47;;;460.02;;
52186;SDS011;38161;53.020;6.598;2023-05-07T12:55:42;1897.55;;;566.85;;
52186;SDS011;38161;53.020;6.598;2023-05-07T12:58:14;1999.90;;;476.50;;
52186;SDS011;38161;53.020;6.598;2023-05-07T13:01:01;1237.80;;;428.73;;
52186;SDS011;38161;53.020;6.598;2023-05-07T13:03:31;1618.80;;;520.30;;
52186;SDS011;38161;53.020;6.598;2023-05-07T13:06:01;1339.75;;;463.25;;
52186;SDS011;38161;53.020;6.598;2023-05-07T13:08:38;1551.47;;;491.42;;
52186;SDS011;38161;53.020;6.598;2023-05-07T13:11:08;1999.90;;;606.80;;
52186;SDS011;38161;53.020;6.598;2023-05-07T13:13:35;1999.90;;;550.83;;
52186;SDS011;38161;53.020;6.598;2023-05-07T13:16:02;1686.35;;;548.92;;
52186;SDS011;38161;53.020;6.598;2023-05-07T13:18:29;1994.97;;;586.00;;
52186;SDS011;38161;53.020;6.598;2023-05-07T13:20:56;1999.90;;;546.70;;
52186;SDS011;38161;53.020;6.598;2023-05-07T13:23:22;1533.68;;;519.60;;
52186;SDS011;38161;53.020;6.598;2023-05-07T13:25:48;1999.90;;;540.78;;
52186;SDS011;38161;53.020;6.598;2023-05-07T13:28:15;1228.05;;;447.67;;
52186;SDS011;38161;53.020;6.598;2023-05-07T13:33:08;1285.03;;;472.67;;
52186;SDS011;38161;53.020;6.598;2023-05-07T13:35:34;1782.28;;;512.10;;
52186;SDS011;38161;53.020;6.598;2023-05-07T13:38:00;1566.18;;;486.30;;
52186;SDS011;38161;53.020;6.598;2023-05-07T13:40:26;1340.90;;;465.10;;
52186;SDS011;38161;53.020;6.598;2023-05-07T13:42:52;1102.10;;;448.35;;
52186;SDS011;38161;53.020;6.598;2023-05-07T13:45:19;1999.90;;;537.10;;
52186;SDS011;38161;53.020;6.598;2023-05-07T13:47:45;1906.25;;;566.47;;
52186;SDS011;38161;53.020;6.598;2023-05-07T13:50:12;1964.13;;;537.05;;
52186;SDS011;38161;53.020;6.598;2023-05-07T13:52:43;1658.57;;;503.75;;
52186;SDS011;38161;53.020;6.598;2023-05-07T13:55:19;1283.03;;;451.98;;
52186;SDS011;38161;53.020;6.598;2023-05-07T13:57:46;1455.82;;;460.20;;
52186;SDS011;38161;53.020;6.598;2023-05-07T14:00:12;1415.38;;;483.52;;
52186;SDS011;38161;53.020;6.598;2023-05-07T14:02:39;1773.15;;;505.15;;
52186;SDS011;38161;53.020;6.598;2023-05-07T14:05:05;1440.05;;;489.20;;
52186;SDS011;38161;53.020;6.598;2023-05-07T14:07:31;1531.55;;;435.70;;
52186;SDS011;38161;53.020;6.598;2023-05-07T14:09:57;1302.38;;;415.10;;
52186;SDS011;38161;53.020;6.598;2023-05-07T14:12:23;1143.05;;;404.48;;
52186;SDS011;38161;53.020;6.598;2023-05-07T14:14:49;1338.32;;;423.80;;
52186;SDS011;38161;53.020;6.598;2023-05-07T14:17:16;1050.22;;;393.52;;
52186;SDS011;38161;53.020;6.598;2023-05-07T14:19:42;1306.25;;;406.48;;
52186;SDS011;38161;53.020;6.598;2023-05-07T14:24:34;1423.88;;;404.50;;
52186;SDS011;38161;53.020;6.598;2023-05-07T14:27:00;871.15;;;364.17;;
52186;SDS011;38161;53.020;6.598;2023-05-07T14:29:27;817.53;;;347.45;;
52186;SDS011;38161;53.020;6.598;2023-05-07T14:31:53;834.33;;;331.00;;
52186;SDS011;38161;53.020;6.598;2023-05-07T14:34:19;1010.03;;;342.08;;
52186;SDS011;38161;53.020;6.598;2023-05-07T14:36:45;1981.53;;;425.05;;
52186;SDS011;38161;53.020;6.598;2023-05-07T14:39:11;1331.68;;;351.33;;
52186;SDS011;38161;53.020;6.598;2023-05-07T14:41:36;1435.05;;;358.27;;
52186;SDS011;38161;53.020;6.598;2023-05-07T14:44:02;935.45;;;339.05;;
52186;SDS011;38161;53.020;6.598;2023-05-07T14:46:29;1033.07;;;344.75;;
52186;SDS011;38161;53.020;6.598;2023-05-07T14:48:56;682.13;;;290.20;;
52186;SDS011;38161;53.020;6.598;2023-05-07T14:51:22;1581.85;;;405.52;;
52186;SDS011;38161;53.020;6.598;2023-05-07T14:53:49;894.45;;;312.77;;
52186;SDS011;38161;53.020;6.598;2023-05-07T14:56:16;742.08;;;298.15;;
52186;SDS011;38161;53.020;6.598;2023-05-07T15:01:08;642.92;;;299.20;;